createdAt,value
2023-02-27T00:00:19.389Z,0.57
2023-02-27T00:02:50.844Z,0.60
2023-02-27T00:05:22.576Z,0.60
2023-02-27T00:07:52.107Z,0.40
2023-02-27T00:10:21.572Z,0.60
2023-02-27T00:12:50.948Z,0.70
2023-02-27T00:15:22.746Z,0.60
2023-02-27T00:17:51.996Z,0.67
2023-02-27T00:20:21.525Z,0.63
2023-02-27T00:22:50.559Z,0.70
2023-02-27T00:25:19.472Z,0.80
2023-02-27T00:27:48.213Z,0.60
2023-02-27T00:30:17.730Z,0.60
2023-02-27T00:32:47.952Z,0.87
2023-02-27T00:35:16.784Z,0.40
2023-02-27T00:37:45.552Z,0.77
2023-02-27T00:40:15.047Z,0.50
2023-02-27T00:42:46.329Z,0.50
2023-02-27T00:45:15.099Z,0.50
2023-02-27T00:47:48.069Z,0.57
2023-02-27T00:50:18.960Z,0.60
2023-02-27T00:52:47.854Z,1.10
2023-02-27T00:55:16.629Z,0.53
2023-02-27T00:57:45.584Z,0.80
2023-02-27T01:00:15.436Z,1.17
2023-02-27T01:02:44.265Z,0.50
2023-02-27T01:05:13.249Z,0.67
2023-02-27T01:07:43.256Z,0.73
2023-02-27T01:10:13.734Z,1.17
2023-02-27T01:12:42.856Z,0.70
2023-02-27T01:15:13.352Z,0.67
2023-02-27T01:17:42.204Z,0.60
2023-02-27T01:20:13.623Z,0.60
2023-02-27T01:22:43.828Z,0.60
2023-02-27T01:25:12.786Z,0.60
2023-02-27T01:27:41.955Z,0.60
2023-02-27T01:30:12.786Z,0.63
2023-02-27T01:32:41.570Z,0.60
2023-02-27T01:35:10.911Z,0.60
2023-02-27T01:37:39.840Z,0.57
2023-02-27T01:40:11.261Z,0.60
2023-02-27T01:42:40.173Z,0.80
2023-02-27T01:45:29.685Z,0.60
2023-02-27T01:48:05.064Z,0.80
2023-02-27T01:50:34.814Z,0.80
2023-02-27T01:53:04.974Z,0.50
2023-02-27T01:55:39.051Z,0.70
2023-02-27T01:58:10.431Z,0.50
2023-02-27T02:00:40.118Z,0.90
2023-02-27T02:03:25.247Z,0.50
2023-02-27T02:05:57.398Z,0.60
2023-02-27T02:08:29.194Z,0.50
2023-02-27T02:11:01.381Z,0.43
2023-02-27T02:13:30.406Z,0.70
2023-02-27T02:16:14.826Z,0.60
2023-02-27T02:18:50.448Z,0.50
2023-02-27T02:22:12.580Z,0.57
2023-02-27T02:25:32.006Z,0.70
2023-02-27T02:28:13.664Z,0.80
2023-02-27T02:31:10.102Z,0.60
2023-02-27T02:34:18.987Z,0.50
2023-02-27T02:37:17.831Z,0.70
2023-02-27T02:40:04.981Z,0.50
2023-02-27T02:42:39.662Z,0.60
2023-02-27T02:45:16.517Z,0.70
2023-02-27T02:47:58.915Z,1.13
2023-02-27T02:50:32.280Z,0.60
2023-02-27T02:53:10.458Z,0.57
2023-02-27T02:55:47.085Z,0.50
2023-02-27T02:58:24.985Z,0.60
2023-02-27T03:00:58.922Z,0.60
2023-02-27T03:03:31.250Z,0.40
2023-02-27T03:06:05.517Z,0.40
2023-02-27T03:08:38.534Z,0.40
2023-02-27T03:11:09.333Z,0.60
2023-02-27T03:13:44.468Z,0.60
2023-02-27T03:16:17.556Z,0.50
2023-02-27T03:18:52.084Z,0.40
2023-02-27T03:21:27.918Z,0.50
2023-02-27T03:24:02.618Z,0.50
2023-02-27T03:26:39.851Z,0.50
2023-02-27T03:29:11.392Z,0.43
2023-02-27T03:31:43.786Z,0.60
2023-02-27T03:34:19.162Z,0.90
2023-02-27T03:36:55.913Z,0.60
2023-02-27T03:39:32.822Z,0.63
2023-02-27T03:42:12.026Z,0.43
2023-02-27T03:44:52.508Z,0.60
2023-02-27T03:47:21.786Z,0.40
2023-02-27T03:49:52.292Z,0.50
2023-02-27T03:52:22.478Z,0.50
2023-02-27T03:54:58.375Z,0.57
2023-02-27T03:57:29.491Z,0.50
2023-02-27T03:59:59.122Z,0.50
2023-02-27T04:02:29.472Z,0.60
2023-02-27T04:04:58.374Z,0.40
2023-02-27T04:07:38.899Z,0.40
2023-02-27T04:10:22.825Z,0.43
2023-02-27T04:13:24.132Z,0.40
2023-02-27T04:16:15.724Z,0.60
2023-02-27T04:18:57.355Z,0.60
2023-02-27T04:21:34.083Z,0.50
2023-02-27T04:24:14.153Z,0.40
2023-02-27T04:26:49.425Z,0.43
2023-02-27T04:29:24.647Z,0.40
2023-02-27T04:32:01.455Z,0.43
2023-02-27T04:34:33.672Z,0.53
2023-02-27T04:37:09.258Z,0.50
2023-02-27T04:39:43.213Z,0.70
2023-02-27T04:42:16.275Z,0.50
2023-02-27T04:44:47.727Z,0.50
2023-02-27T04:47:20.136Z,0.60
2023-02-27T04:49:53.138Z,0.50
2023-02-27T04:52:27.424Z,0.67
2023-02-27T04:55:01.692Z,0.90
2023-02-27T04:57:36.270Z,0.60
2023-02-27T05:00:09.434Z,0.50
2023-02-27T05:02:43.895Z,0.40
2023-02-27T05:05:19.518Z,0.70
2023-02-27T05:07:53.926Z,0.40
2023-02-27T05:10:29.908Z,1.00
2023-02-27T05:13:04.019Z,0.73
2023-02-27T05:15:35.084Z,0.67
2023-02-27T05:18:08.096Z,0.50
2023-02-27T05:20:44.058Z,0.63
2023-02-27T05:23:22.228Z,1.00
2023-02-27T05:25:57.041Z,0.90
2023-02-27T05:28:30.357Z,0.50
2023-02-27T05:31:04.493Z,1.07
2023-02-27T05:33:37.351Z,0.80
2023-02-27T05:36:13.622Z,0.90
2023-02-27T05:38:47.158Z,0.57
2023-02-27T05:41:21.705Z,0.80
2023-02-27T05:43:55.226Z,1.97
2023-02-27T05:46:30.093Z,1.00
2023-02-27T05:49:06.111Z,0.50
2023-02-27T05:51:36.906Z,0.40
2023-02-27T05:54:11.602Z,0.50
2023-02-27T05:56:45.249Z,0.50
2023-02-27T05:59:20.605Z,0.90
2023-02-27T06:01:49.419Z,0.40
2023-02-27T06:04:21.076Z,0.50
2023-02-27T06:06:50.627Z,0.40
2023-02-27T06:09:20.595Z,0.50
2023-02-27T06:11:49.594Z,0.50
2023-02-27T06:14:18.440Z,0.50
2023-02-27T06:16:47.113Z,0.40
2023-02-27T06:19:15.888Z,0.53
2023-02-27T06:21:46.026Z,0.50
2023-02-27T06:24:14.849Z,0.40
2023-02-27T06:26:43.726Z,0.50
2023-02-27T06:29:12.425Z,0.40
2023-02-27T06:31:41.042Z,0.50
2023-02-27T06:34:09.767Z,0.47
2023-02-27T06:36:38.405Z,0.50
2023-02-27T06:39:08.861Z,0.40
2023-02-27T06:41:37.707Z,0.60
2023-02-27T06:44:06.432Z,0.57
2023-02-27T06:46:35.130Z,0.43
2023-02-27T06:49:03.835Z,0.50
2023-02-27T06:51:32.771Z,0.77
2023-02-27T06:54:01.874Z,0.70
2023-02-27T06:56:31.841Z,0.50
2023-02-27T06:59:00.827Z,0.40
2023-02-27T07:01:29.708Z,0.50
2023-02-27T07:03:58.562Z,0.77
2023-02-27T07:06:31.973Z,0.60
2023-02-27T07:09:16.041Z,0.77
2023-02-27T07:11:46.172Z,0.70
2023-02-27T07:14:16.633Z,0.70
2023-02-27T07:16:47.061Z,0.60
2023-02-27T07:19:15.921Z,0.50
2023-02-27T07:21:44.620Z,0.60
2023-02-27T07:24:13.511Z,0.87
2023-02-27T07:26:42.271Z,0.70
2023-02-27T07:29:12.303Z,1.07
2023-02-27T07:31:40.947Z,0.50
2023-02-27T07:34:11.836Z,0.60
2023-02-27T07:36:40.851Z,0.87
2023-02-27T07:39:10.731Z,0.50
2023-02-27T07:41:39.426Z,0.47
2023-02-27T07:44:08.630Z,0.90
2023-02-27T07:46:38.727Z,0.50
2023-02-27T07:49:07.381Z,0.30
2023-02-27T07:51:36.060Z,0.43
2023-02-27T07:54:04.793Z,1.40
2023-02-27T07:56:33.534Z,0.50
2023-02-27T07:59:02.177Z,0.50
2023-02-27T08:01:31.002Z,0.60
2023-02-27T08:04:03.055Z,0.50
2023-02-27T08:06:31.615Z,0.60
2023-02-27T08:09:00.226Z,0.40
2023-02-27T08:11:29.271Z,0.33
2023-02-27T08:14:00.868Z,0.93
2023-02-27T08:16:32.370Z,0.67
2023-02-27T08:19:03.162Z,0.70
2023-02-27T08:21:31.747Z,0.43
2023-02-27T08:24:00.644Z,1.00
2023-02-27T08:26:29.606Z,0.50
2023-02-27T08:28:58.425Z,0.50
2023-02-27T08:31:27.290Z,0.40
2023-02-27T08:34:04.397Z,0.50
2023-02-27T08:36:39.806Z,0.53
2023-02-27T08:39:09.855Z,0.90
2023-02-27T08:41:38.500Z,0.40
2023-02-27T08:44:07.492Z,0.30
2023-02-27T08:46:36.239Z,0.40
2023-02-27T08:49:05.012Z,0.50
2023-02-27T08:51:34.022Z,0.50
2023-02-27T08:54:04.285Z,0.40
2023-02-27T08:56:34.493Z,0.63
2023-02-27T08:59:03.490Z,0.40
2023-02-27T09:01:34.694Z,0.60
2023-02-27T09:04:03.993Z,0.70
2023-02-27T09:06:33.917Z,0.47
2023-02-27T09:09:05.135Z,0.90
2023-02-27T09:11:33.876Z,0.50
2023-02-27T09:14:02.474Z,1.50
2023-02-27T09:16:31.510Z,0.80
2023-02-27T09:19:00.260Z,0.60
2023-02-27T09:21:29.868Z,0.50
2023-02-27T09:24:10.160Z,0.70
2023-02-27T09:26:48.106Z,1.00
2023-02-27T09:29:17.072Z,0.67
2023-02-27T09:31:45.842Z,0.50
2023-02-27T09:34:14.479Z,0.50
2023-02-27T09:36:43.097Z,0.83
2023-02-27T09:39:12.596Z,0.70
2023-02-27T09:41:58.427Z,0.40
2023-02-27T09:44:46.270Z,1.27
2023-02-27T09:47:21.514Z,0.50
2023-02-27T09:49:59.188Z,0.63
2023-02-27T09:52:29.116Z,0.33
2023-02-27T09:54:57.984Z,0.33
2023-02-27T09:57:42.272Z,0.30
2023-02-27T10:00:30.736Z,0.50
2023-02-27T10:03:12.818Z,0.60
2023-02-27T10:05:49.407Z,0.83
2023-02-27T10:08:25.295Z,0.40
2023-02-27T10:11:01.322Z,0.30
2023-02-27T10:13:52.289Z,0.30
2023-02-27T10:16:23.576Z,0.43
2023-02-27T10:18:58.256Z,0.30
2023-02-27T10:21:34.446Z,0.50
2023-02-27T10:24:12.782Z,0.33
2023-02-27T10:26:45.063Z,0.33
2023-02-27T10:29:21.952Z,0.40
2023-02-27T10:31:56.737Z,0.60
2023-02-27T10:34:28.556Z,0.50
2023-02-27T10:36:57.933Z,0.70
2023-02-27T10:39:28.035Z,0.73
2023-02-27T10:41:59.367Z,0.70
2023-02-27T10:44:29.372Z,0.23
2023-02-27T10:46:58.470Z,0.37
2023-02-27T10:49:38.486Z,0.30
2023-02-27T10:52:10.633Z,0.40
2023-02-27T10:54:39.926Z,0.70
2023-02-27T10:57:22.804Z,0.43
2023-02-27T10:59:59.087Z,0.50
2023-02-27T11:02:37.929Z,0.50
2023-02-27T11:05:08.904Z,1.07
2023-02-27T11:07:39.937Z,0.30
2023-02-27T11:10:19.625Z,0.50
2023-02-27T11:13:01.541Z,0.70
2023-02-27T11:15:35.514Z,0.30
2023-02-27T11:18:25.974Z,0.27
2023-02-27T11:20:55.696Z,0.77
2023-02-27T11:23:26.013Z,0.50
2023-02-27T11:26:12.509Z,0.57
2023-02-27T11:28:41.212Z,0.53
2023-02-27T11:31:19.787Z,0.90
2023-02-27T11:33:53.159Z,0.30
2023-02-27T11:36:23.893Z,0.73
2023-02-27T11:38:54.858Z,0.77
2023-02-27T11:41:33.738Z,0.57
2023-02-27T11:44:05.611Z,0.30
2023-02-27T11:46:47.994Z,0.40
2023-02-27T11:49:31.059Z,0.50
2023-02-27T11:52:10.062Z,0.47
2023-02-27T11:54:44.470Z,0.30
2023-02-27T11:57:22.452Z,0.50
2023-02-27T11:59:58.437Z,0.30
2023-02-27T12:02:39.135Z,0.47
2023-02-27T12:05:16.887Z,0.73
2023-02-27T12:07:52.715Z,0.73
2023-02-27T12:10:26.216Z,0.37
2023-02-27T12:12:58.572Z,0.40
2023-02-27T12:15:31.845Z,0.60
2023-02-27T12:18:14.172Z,0.73
2023-02-27T12:20:52.267Z,0.60
2023-02-27T12:23:27.550Z,0.50
2023-02-27T12:26:04.561Z,0.33
2023-02-27T12:28:43.256Z,0.20
2023-02-27T12:31:36.822Z,0.30
2023-02-27T12:34:16.731Z,0.30
2023-02-27T12:36:45.829Z,0.20
2023-02-27T12:39:20.576Z,0.30
2023-02-27T12:42:15.656Z,0.70
2023-02-27T12:45:09.553Z,0.43
2023-02-27T12:47:45.198Z,0.23
2023-02-27T12:50:20.452Z,0.30
2023-02-27T12:53:02.762Z,0.60
2023-02-27T12:55:34.818Z,0.30
2023-02-27T12:58:27.146Z,0.57
2023-02-27T13:01:01.118Z,0.37
2023-02-27T13:03:36.557Z,0.60
2023-02-27T13:06:16.803Z,0.30
2023-02-27T13:09:26.861Z,0.30
2023-02-27T13:12:04.817Z,0.30
2023-02-27T13:14:42.907Z,0.37
2023-02-27T13:17:24.862Z,0.47
2023-02-27T13:19:57.813Z,0.37
2023-02-27T13:22:38.577Z,0.30
2023-02-27T13:25:14.286Z,0.50
2023-02-27T13:27:48.059Z,0.60
2023-02-27T13:30:25.518Z,0.40
2023-02-27T13:33:02.975Z,0.60
2023-02-27T13:35:44.025Z,0.50
2023-02-27T13:38:33.653Z,0.40
2023-02-27T13:41:39.502Z,0.33
2023-02-27T13:44:41.061Z,0.30
2023-02-27T13:47:48.768Z,0.30
2023-02-27T13:50:52.787Z,0.40
2023-02-27T13:53:24.528Z,0.30
2023-02-27T13:56:19.118Z,0.30
2023-02-27T13:58:48.543Z,0.40
2023-02-27T14:01:23.833Z,0.53
2023-02-27T14:03:58.213Z,0.27
2023-02-27T14:06:30.536Z,0.27
2023-02-27T14:09:12.847Z,0.57
2023-02-27T14:11:55.139Z,0.30
2023-02-27T14:14:45.956Z,0.40
2023-02-27T14:17:15.684Z,0.30
2023-02-27T14:19:59.308Z,0.30
2023-02-27T14:23:01.841Z,0.40
2023-02-27T14:25:35.783Z,0.60
2023-02-27T14:28:06.465Z,0.50
2023-02-27T14:30:40.634Z,0.30
2023-02-27T14:33:39.076Z,1.10
2023-02-27T14:36:15.024Z,0.80
2023-02-27T14:38:43.753Z,1.17
2023-02-27T14:41:30.039Z,0.50
2023-02-27T14:44:01.376Z,0.50
2023-02-27T14:46:33.530Z,0.33
2023-02-27T14:49:03.815Z,0.43
2023-02-27T14:51:34.941Z,0.30
2023-02-27T14:54:06.914Z,0.73
2023-02-27T14:56:36.319Z,0.40
2023-02-27T14:59:25.489Z,0.40
2023-02-27T15:01:56.047Z,0.30
2023-02-27T15:04:27.643Z,0.30
2023-02-27T15:06:58.431Z,0.50
2023-02-27T15:09:34.199Z,0.50
2023-02-27T15:12:04.912Z,0.40
2023-02-27T15:14:38.855Z,0.23
2023-02-27T15:17:18.098Z,0.40
2023-02-27T15:19:52.239Z,0.30
2023-02-27T15:22:38.031Z,0.40
2023-02-27T15:25:09.204Z,0.40
2023-02-27T15:27:39.199Z,0.20
2023-02-27T15:30:20.860Z,0.40
2023-02-27T15:32:51.344Z,0.40
2023-02-27T15:35:23.806Z,0.63
2023-02-27T15:37:56.707Z,0.40
2023-02-27T15:40:30.531Z,0.47
2023-02-27T15:43:02.441Z,0.30
2023-02-27T15:45:35.972Z,0.60
2023-02-27T15:48:05.251Z,0.30
2023-02-27T15:50:37.543Z,0.40
2023-02-27T15:53:11.988Z,0.40
2023-02-27T15:55:45.920Z,0.40
2023-02-27T15:58:25.376Z,0.33
2023-02-27T16:01:01.026Z,0.70
2023-02-27T16:03:36.534Z,0.70
2023-02-27T16:06:12.148Z,0.50
2023-02-27T16:08:48.371Z,0.40
2023-02-27T16:11:23.026Z,0.60
2023-02-27T16:13:52.796Z,0.67
2023-02-27T16:16:30.268Z,0.30
2023-02-27T16:19:03.402Z,0.93
2023-02-27T16:21:32.469Z,0.47
2023-02-27T16:24:20.667Z,0.50
2023-02-27T16:26:53.793Z,0.47
2023-02-27T16:29:24.913Z,0.73
2023-02-27T16:31:57.427Z,0.40
2023-02-27T16:34:44.187Z,0.77
2023-02-27T16:37:23.297Z,0.67
2023-02-27T16:39:54.288Z,0.87
2023-02-27T16:42:23.290Z,0.40
2023-02-27T16:44:52.152Z,0.93
2023-02-27T16:47:22.853Z,0.67
2023-02-27T16:49:51.666Z,0.43
2023-02-27T16:52:22.652Z,0.50
2023-02-27T16:54:52.173Z,0.80
2023-02-27T16:57:24.838Z,0.53
2023-02-27T16:59:53.821Z,0.33
2023-02-27T17:02:26.141Z,0.33
2023-02-27T17:05:03.066Z,0.50
2023-02-27T17:07:32.062Z,0.43
2023-02-27T17:10:05.666Z,0.50
2023-02-27T17:12:34.462Z,0.53
2023-02-27T17:15:07.981Z,0.60
2023-02-27T17:17:38.826Z,0.60
2023-02-27T17:20:08.932Z,0.90
2023-02-27T17:22:38.456Z,0.40
2023-02-27T17:25:08.337Z,0.97
2023-02-27T17:27:37.536Z,0.33
2023-02-27T17:30:07.467Z,0.80
2023-02-27T17:32:37.674Z,0.80
2023-02-27T17:35:06.976Z,0.50
2023-02-27T17:37:35.659Z,0.87
2023-02-27T17:40:05.019Z,0.70
2023-02-27T17:42:33.804Z,0.73
2023-02-27T17:45:05.738Z,0.93
2023-02-27T17:47:35.355Z,0.97
2023-02-27T17:50:06.410Z,0.80
2023-02-27T17:52:37.202Z,0.90
2023-02-27T17:55:06.247Z,1.47
2023-02-27T17:57:37.107Z,3.50
2023-02-27T18:00:06.933Z,2.10
2023-02-27T18:02:36.088Z,1.57
2023-02-27T18:05:06.887Z,3.17
2023-02-27T18:07:35.748Z,2.73
2023-02-27T18:10:05.488Z,1.17
2023-02-27T18:12:34.292Z,2.03
2023-02-27T18:15:03.319Z,1.40
2023-02-27T18:17:32.060Z,2.07
2023-02-27T18:20:00.729Z,1.07
2023-02-27T18:22:32.898Z,1.23
2023-02-27T18:25:01.738Z,0.73
2023-02-27T18:27:30.336Z,1.37
2023-02-27T18:29:59.265Z,1.20
2023-02-27T18:32:27.907Z,0.90
2023-02-27T18:34:56.798Z,2.07
2023-02-27T18:37:25.421Z,1.37
2023-02-27T18:39:55.624Z,1.27
2023-02-27T18:42:24.298Z,1.10
2023-02-27T18:44:53.101Z,1.33
2023-02-27T18:47:21.711Z,1.30
2023-02-27T18:49:51.508Z,1.57
2023-02-27T18:52:20.234Z,1.50
2023-02-27T18:54:49.108Z,0.83
2023-02-27T18:57:19.274Z,0.40
2023-02-27T18:59:48.085Z,1.17
2023-02-27T19:02:19.615Z,1.37
2023-02-27T19:04:48.904Z,2.03
2023-02-27T19:07:18.121Z,1.70
2023-02-27T19:09:46.986Z,1.77
2023-02-27T19:12:15.595Z,0.57
2023-02-27T19:14:45.722Z,1.30
2023-02-27T19:17:14.440Z,0.63
2023-02-27T19:19:43.077Z,1.80
2023-02-27T19:22:11.685Z,1.37
2023-02-27T19:24:40.343Z,0.50
2023-02-27T19:27:09.030Z,0.90
2023-02-27T19:29:37.671Z,1.90
2023-02-27T19:32:08.817Z,1.00
2023-02-27T19:34:37.588Z,1.70
2023-02-27T19:37:06.220Z,2.13
2023-02-27T19:39:34.835Z,1.97
2023-02-27T19:42:03.487Z,2.33
2023-02-27T19:44:32.094Z,1.97
2023-02-27T19:47:00.704Z,1.03
2023-02-27T19:49:30.678Z,2.10
2023-02-27T19:51:59.255Z,2.43
2023-02-27T19:54:27.842Z,1.03
2023-02-27T19:56:56.570Z,1.50
2023-02-27T19:59:25.701Z,0.90
2023-02-27T20:01:54.916Z,0.97
2023-02-27T20:04:23.666Z,0.83
2023-02-27T20:06:54.553Z,1.13
2023-02-27T20:09:23.405Z,1.10
2023-02-27T20:11:56.736Z,1.20
2023-02-27T20:14:25.367Z,0.60
2023-02-27T20:16:54.275Z,0.97
2023-02-27T20:19:24.220Z,0.57
2023-02-27T20:21:55.446Z,0.90
2023-02-27T20:24:24.544Z,1.43
2023-02-27T20:26:53.926Z,1.63
2023-02-27T20:29:25.402Z,1.27
2023-02-27T20:31:57.371Z,1.23
2023-02-27T20:34:27.389Z,1.90
2023-02-27T20:36:58.090Z,1.67
2023-02-27T20:39:28.068Z,1.27
2023-02-27T20:41:56.739Z,2.07
2023-02-27T20:44:25.424Z,1.70
2023-02-27T20:46:54.103Z,1.73
2023-02-27T20:49:23.204Z,2.23
2023-02-27T20:51:52.730Z,3.13
2023-02-27T20:54:22.709Z,1.87
2023-02-27T20:56:54.308Z,2.00
2023-02-27T20:59:25.843Z,1.97
2023-02-27T21:01:55.361Z,1.83
2023-02-27T21:04:42.070Z,1.13
2023-02-27T21:07:11.970Z,1.67
2023-02-27T21:09:42.008Z,1.63
2023-02-27T21:12:10.922Z,0.83
2023-02-27T21:14:39.864Z,1.03
2023-02-27T21:17:08.462Z,0.90
2023-02-27T21:19:37.648Z,0.87
2023-02-27T21:22:07.437Z,0.80
2023-02-27T21:24:35.948Z,1.37
2023-02-27T21:27:06.269Z,0.67
2023-02-27T21:29:34.873Z,1.17
2023-02-27T21:32:03.540Z,0.60
2023-02-27T21:34:32.822Z,0.50
2023-02-27T21:37:06.064Z,1.30
2023-02-27T21:39:34.712Z,1.60
2023-02-27T21:42:03.388Z,1.07
2023-02-27T21:44:33.564Z,2.17
2023-02-27T21:47:09.726Z,1.47
2023-02-27T21:49:39.395Z,1.40
2023-02-27T21:52:08.199Z,1.03
2023-02-27T21:54:37.092Z,0.90
2023-02-27T21:57:06.363Z,1.10
2023-02-27T21:59:36.473Z,1.70
2023-02-27T22:02:05.732Z,0.87
2023-02-27T22:04:34.294Z,2.00
2023-02-27T22:07:02.876Z,0.80
2023-02-27T22:09:31.503Z,0.90
2023-02-27T22:12:00.138Z,1.13
2023-02-27T22:14:28.892Z,1.20
2023-02-27T22:16:58.930Z,1.83
2023-02-27T22:19:27.584Z,1.30
2023-02-27T22:21:56.256Z,1.93
2023-02-27T22:24:24.849Z,0.73
2023-02-27T22:26:53.595Z,1.03
2023-02-27T22:29:22.146Z,1.10
2023-02-27T22:31:51.229Z,0.63
2023-02-27T22:34:21.242Z,1.57
2023-02-27T22:36:52.662Z,1.00
2023-02-27T22:39:22.187Z,1.63
2023-02-27T22:41:50.992Z,0.97
2023-02-27T22:44:19.743Z,1.27
2023-02-27T22:46:50.738Z,1.00
2023-02-27T22:49:22.239Z,1.33
2023-02-27T22:51:52.274Z,1.10
2023-02-27T22:54:23.490Z,1.93
2023-02-27T22:56:53.513Z,1.40
2023-02-27T22:59:22.625Z,2.03
2023-02-27T23:01:52.108Z,1.83
2023-02-27T23:04:22.526Z,2.83
2023-02-27T23:06:52.921Z,2.43
2023-02-27T23:09:24.134Z,2.93
2023-02-27T23:11:53.008Z,2.43
2023-02-27T23:14:22.550Z,4.13
2023-02-27T23:16:51.653Z,4.57
2023-02-27T23:19:23.305Z,4.43
2023-02-27T23:21:54.627Z,4.43
2023-02-27T23:24:23.286Z,5.63
2023-02-27T23:26:53.157Z,3.57
2023-02-27T23:29:22.007Z,3.30
2023-02-27T23:31:51.258Z,3.47
2023-02-27T23:34:19.901Z,3.63
2023-02-27T23:36:50.332Z,3.30
2023-02-27T23:39:19.536Z,3.13
2023-02-27T23:41:48.271Z,3.63
2023-02-27T23:44:16.820Z,2.70
2023-02-27T23:46:45.413Z,3.47
2023-02-27T23:49:14.005Z,3.43
2023-02-27T23:51:42.568Z,2.33
2023-02-27T23:54:12.764Z,2.40
2023-02-27T23:56:41.506Z,3.43
2023-02-27T23:59:10.110Z,3.83
